KCLE/CLE METAR and TAF weather

Enter ICAO airport designator
Station Type Date Time Source
KCLE METAR 2021/03/06 03:51 UTC NOAA

KCLE 060351Z 32011KT 10SM FEW060 00/M07 A3016 RMK AO2 SLP238 T00001067


Station Type Date Time Source
KCLE Decoded METAR 2021/03/06 03:51 UTC NOAA

CLEVELAND-HOPKINS INTERNATIONAL , OH, United States (KCLE) 41-24N 081-51W 236M
Mar 05, 2021 - 10:51 PM EST / 2021.03.06 0351 UTC
Wind: from the NW (320 degrees) at 13 MPH (11 KT):0
Visibility: 10 mile(s):0
Sky conditions: mostly clear
Temperature: 32.0 F (0.0 C)
Windchill: 23 F (-5 C):1
Dew Point: 19.9 F (-6.7 C)
Relative Humidity: 60%
Pressure (altimeter): 30.16 in. Hg (1021 hPa)
ob: KCLE 060351Z 32011KT 10SM FEW060 00/M07 A3016 RMK AO2 SLP238 T00001067
cycle: 4

Station Type Date Time Source
KCLE TAF 2021/03/06 03:58 UTC NOAA

TAF
AMD KCLE 060256Z 0603/0706 29009KT P6SM SKC
FM061500 31011G17KT P6SM FEW250

Example: see airport list